Esler, Louisiana
Current Conditions -  °F | °C
As of 4:53 PM on Friday 19 Dec 2014 (Local Time) from KESF Reporting Station
Light Rain Light Rain  
Wind Chill: 47°   Ceiling: 700
Heat Index: 49°   Visibility: 10mi
Dew Point: 46°   Wind: 6mph
Humidity: 90%   Direction: 60°ENE
Pressure: 30.09"   Gusts: NA
Location:  31.3398°N, 92.3739°W
Report Text: KESF 192253Z AUTO 06005KT 10SM -RA OVC007 09/08 A3009 RMK AO2 CIG 005V011 SLP190 P0001 T00940078
Loading
Personal Weather Stations






























Interactive Weather Map New forecast layout! Learn more

10-Day Weather Forecast

Advertisements
Track Severe Weather on mobile